createdAt,value
2018-07-07T00:00:12.374Z,0.00
2018-07-07T00:01:12.378Z,0.00
2018-07-07T00:02:12.377Z,0.00
2018-07-07T00:03:12.371Z,0.00
2018-07-07T00:04:12.371Z,0.00
2018-07-07T00:05:12.379Z,0.00
2018-07-07T00:06:12.373Z,0.00
2018-07-07T00:07:12.373Z,0.00
2018-07-07T00:08:12.373Z,0.00
2018-07-07T00:09:12.365Z,0.00
2018-07-07T00:10:12.366Z,0.00
2018-07-07T00:11:12.365Z,0.00
2018-07-07T00:12:12.362Z,0.00
2018-07-07T00:13:12.370Z,0.00
2018-07-07T00:14:12.366Z,0.00
2018-07-07T00:15:12.365Z,0.00
2018-07-07T00:16:12.362Z,0.00
2018-07-07T00:17:12.357Z,0.00
2018-07-07T00:18:12.356Z,0.00
2018-07-07T00:19:12.360Z,0.00
2018-07-07T00:20:12.358Z,0.00
2018-07-07T00:21:12.354Z,0.00
2018-07-07T00:22:12.352Z,0.00
2018-07-07T00:23:12.350Z,0.00
2018-07-07T00:24:12.349Z,0.00
2018-07-07T00:25:12.353Z,0.00
2018-07-07T00:26:12.353Z,0.00
2018-07-07T00:27:12.359Z,0.00
2018-07-07T00:28:12.350Z,0.00
2018-07-07T00:29:12.343Z,0.00
2018-07-07T00:30:12.342Z,0.00
2018-07-07T00:31:12.344Z,0.00
2018-07-07T00:32:12.339Z,0.00
2018-07-07T00:33:12.344Z,0.00
2018-07-07T00:34:12.341Z,0.00
2018-07-07T00:35:12.340Z,0.00
2018-07-07T00:36:12.335Z,0.00
2018-07-07T00:37:12.338Z,0.00
2018-07-07T00:38:12.337Z,0.00
2018-07-07T00:39:12.340Z,0.00
2018-07-07T00:40:12.336Z,0.00
2018-07-07T00:41:12.329Z,0.00
2018-07-07T00:42:12.329Z,0.00
2018-07-07T00:43:12.328Z,0.00
2018-07-07T00:44:12.325Z,0.00
2018-07-07T00:45:12.331Z,0.00
2018-07-07T00:46:12.330Z,0.00
2018-07-07T00:47:12.328Z,0.00
2018-07-07T00:48:12.324Z,0.00
2018-07-07T00:49:12.319Z,0.00
2018-07-07T00:50:12.322Z,0.00
2018-07-07T00:51:12.321Z,0.00
2018-07-07T00:52:12.319Z,0.00
2018-07-07T00:53:12.315Z,0.00
2018-07-07T00:54:12.317Z,0.00
2018-07-07T00:55:12.312Z,0.00
2018-07-07T00:56:12.311Z,0.00
2018-07-07T00:57:12.314Z,0.00
2018-07-07T00:58:12.313Z,0.00
2018-07-07T00:59:12.313Z,0.00
2018-07-07T01:00:12.310Z,0.00
2018-07-07T01:01:12.305Z,0.00
2018-07-07T01:02:12.303Z,0.00
2018-07-07T01:03:12.301Z,0.00
2018-07-07T01:04:12.300Z,0.00
2018-07-07T01:05:12.302Z,0.00
2018-07-07T01:06:12.302Z,0.00
2018-07-07T01:07:12.295Z,0.00
2018-07-07T01:08:12.294Z,0.00
2018-07-07T01:09:12.298Z,0.00
2018-07-07T01:10:12.297Z,0.00
2018-07-07T01:11:12.296Z,0.00
2018-07-07T01:12:12.293Z,0.00
2018-07-07T01:13:12.286Z,0.00
2018-07-07T01:14:12.289Z,0.00
2018-07-07T01:15:12.285Z,0.00
2018-07-07T01:16:12.282Z,0.00
2018-07-07T01:17:12.286Z,0.00
2018-07-07T01:18:12.284Z,0.00
2018-07-07T01:19:12.289Z,0.00
2018-07-07T01:20:12.279Z,0.00
2018-07-07T01:21:12.275Z,0.00
2018-07-07T01:22:12.273Z,0.00
2018-07-07T01:23:12.277Z,0.00
2018-07-07T01:24:12.275Z,0.00
2018-07-07T01:25:12.270Z,0.00
2018-07-07T01:26:12.267Z,0.00
2018-07-07T01:27:12.267Z,0.00
2018-07-07T01:28:12.263Z,0.00
2018-07-07T01:29:12.267Z,0.00
2018-07-07T01:30:12.269Z,0.00
2018-07-07T01:31:12.265Z,0.00
2018-07-07T01:32:12.264Z,0.00
2018-07-07T01:33:12.256Z,0.00
2018-07-07T01:34:12.255Z,0.00
2018-07-07T01:35:12.253Z,0.00
2018-07-07T01:36:12.253Z,0.00
2018-07-07T01:37:12.256Z,0.00
2018-07-07T01:38:12.261Z,0.00
2018-07-07T01:39:12.247Z,0.00
2018-07-07T01:40:12.245Z,0.00
2018-07-07T01:41:12.248Z,0.00
2018-07-07T01:42:12.248Z,0.00
2018-07-07T01:43:12.245Z,0.00
2018-07-07T01:44:12.243Z,0.00
2018-07-07T01:45:12.238Z,0.00
2018-07-07T01:46:12.235Z,0.00
2018-07-07T01:47:12.234Z,0.00
2018-07-07T01:48:12.231Z,0.00
2018-07-07T01:49:12.235Z,0.00
2018-07-07T01:50:12.233Z,0.00
2018-07-07T01:51:12.232Z,0.00
2018-07-07T01:52:12.231Z,0.00
2018-07-07T01:53:12.223Z,0.00
2018-07-07T01:54:12.223Z,0.00
2018-07-07T01:55:12.225Z,0.00
2018-07-07T01:56:12.223Z,0.00
2018-07-07T01:57:12.217Z,0.00
2018-07-07T01:58:12.215Z,0.00
2018-07-07T01:59:12.214Z,0.00
2018-07-07T02:00:12.213Z,0.00
2018-07-07T02:01:12.216Z,0.00
2018-07-07T02:02:12.213Z,0.00
2018-07-07T02:03:12.217Z,0.00
2018-07-07T02:04:12.209Z,0.00
2018-07-07T02:05:12.204Z,0.00
2018-07-07T02:06:12.203Z,0.00
2018-07-07T02:07:12.202Z,0.00
2018-07-07T02:08:12.201Z,0.00
2018-07-07T02:09:12.203Z,0.00
2018-07-07T02:10:12.203Z,0.00
2018-07-07T02:11:12.197Z,0.00
2018-07-07T02:12:12.195Z,0.00
2018-07-07T02:13:12.198Z,0.00
2018-07-07T02:14:12.198Z,0.00
2018-07-07T02:15:12.199Z,0.00
2018-07-07T02:16:12.193Z,0.00
2018-07-07T02:17:12.186Z,0.00
2018-07-07T02:18:12.186Z,0.00
2018-07-07T02:19:12.185Z,0.00
2018-07-07T02:20:12.182Z,0.00
2018-07-07T02:21:12.186Z,0.00
2018-07-07T02:22:12.184Z,0.00
2018-07-07T02:23:12.183Z,0.00
2018-07-07T02:24:12.181Z,0.00
2018-07-07T02:25:12.176Z,0.00
2018-07-07T02:26:12.177Z,0.00
2018-07-07T02:27:12.179Z,0.00
2018-07-07T02:28:12.179Z,0.00
2018-07-07T02:29:12.171Z,0.00
2018-07-07T02:30:12.169Z,0.00
2018-07-07T02:31:12.167Z,0.00
2018-07-07T02:32:12.167Z,0.00
2018-07-07T02:33:12.169Z,0.00
2018-07-07T02:34:12.169Z,0.00
2018-07-07T02:35:12.167Z,0.00
2018-07-07T02:36:12.165Z,0.00
2018-07-07T02:37:12.159Z,0.00
2018-07-07T02:38:12.158Z,0.00
2018-07-07T02:39:12.156Z,0.00
2018-07-07T02:40:12.154Z,0.00
2018-07-07T02:41:12.158Z,0.00
2018-07-07T02:42:12.158Z,0.00
2018-07-07T02:43:12.152Z,0.00
2018-07-07T02:44:12.148Z,0.00
2018-07-07T02:45:12.153Z,0.00
2018-07-07T02:46:12.172Z,0.00
2018-07-07T02:47:12.150Z,0.00
2018-07-07T02:48:12.150Z,0.00
2018-07-07T02:49:12.142Z,0.00
2018-07-07T02:50:12.141Z,4.00
2018-07-07T02:51:12.140Z,4.00
2018-07-07T02:52:12.140Z,4.00
2018-07-07T02:53:12.143Z,0.00
2018-07-07T02:54:12.141Z,4.00
2018-07-07T02:55:12.144Z,4.00
2018-07-07T02:56:12.140Z,4.00
2018-07-07T02:57:12.132Z,4.00
2018-07-07T02:58:12.131Z,8.00
2018-07-07T02:59:12.136Z,8.00
2018-07-07T03:00:12.132Z,8.00
2018-07-07T03:01:12.127Z,8.00
2018-07-07T03:02:12.126Z,8.00
2018-07-07T03:03:12.151Z,12.00
2018-07-07T03:04:12.124Z,12.00
2018-07-07T03:05:12.130Z,12.00
2018-07-07T03:06:12.131Z,16.00
2018-07-07T03:07:12.126Z,16.00
2018-07-07T03:08:12.124Z,20.00
2018-07-07T03:09:12.118Z,20.00
2018-07-07T03:10:12.117Z,24.00
2018-07-07T03:11:12.116Z,28.00
2018-07-07T03:12:12.114Z,32.00
2018-07-07T03:13:12.117Z,40.00
2018-07-07T03:14:12.121Z,44.00
2018-07-07T03:15:12.112Z,44.00
2018-07-07T03:16:12.109Z,48.00
2018-07-07T03:17:12.112Z,52.00
2018-07-07T03:18:12.111Z,56.00
2018-07-07T03:19:12.112Z,60.00
2018-07-07T03:20:12.109Z,64.00
2018-07-07T03:21:12.104Z,72.00
2018-07-07T03:22:12.103Z,76.00
2018-07-07T03:23:12.102Z,84.00
2018-07-07T03:24:12.099Z,92.00
2018-07-07T03:25:12.104Z,96.00
2018-07-07T03:26:12.105Z,104.00
2018-07-07T03:27:12.101Z,108.00
2018-07-07T03:28:12.100Z,112.00
2018-07-07T03:29:12.095Z,120.00
2018-07-07T03:30:12.095Z,128.00
2018-07-07T03:31:12.097Z,136.00
2018-07-07T03:32:12.095Z,148.00
2018-07-07T03:33:12.089Z,156.00
2018-07-07T03:34:12.089Z,168.00
2018-07-07T03:35:12.092Z,180.00
2018-07-07T03:36:12.090Z,196.00
2018-07-07T03:37:12.089Z,208.00
2018-07-07T03:38:12.090Z,220.00
2018-07-07T03:39:12.088Z,240.00
2018-07-07T03:40:12.086Z,252.00
2018-07-07T03:41:12.081Z,268.00
2018-07-07T03:42:12.103Z,280.00
2018-07-07T03:43:12.078Z,300.00
2018-07-07T03:44:12.077Z,316.00
2018-07-07T03:45:12.081Z,332.00
2018-07-07T03:46:12.087Z,352.00
2018-07-07T03:47:12.075Z,376.00
2018-07-07T03:48:12.072Z,392.00
2018-07-07T03:49:12.124Z,404.00
2018-07-07T03:50:12.076Z,416.00
2018-07-07T03:51:12.073Z,436.00
2018-07-07T03:52:12.073Z,460.00
2018-07-07T03:53:12.067Z,496.00
2018-07-07T03:54:12.066Z,536.00
2018-07-07T03:55:12.065Z,584.00
2018-07-07T03:56:12.064Z,620.00
2018-07-07T03:57:12.066Z,664.00
2018-07-07T03:58:12.065Z,720.00
2018-07-07T03:59:12.066Z,764.00
2018-07-07T04:00:12.063Z,800.00
2018-07-07T04:01:12.057Z,832.00
2018-07-07T04:02:12.056Z,852.00
2018-07-07T04:03:12.062Z,888.00
2018-07-07T04:04:12.058Z,920.00
2018-07-07T04:05:12.053Z,944.00
2018-07-07T04:06:12.052Z,964.00
2018-07-07T04:07:12.059Z,980.00
2018-07-07T04:08:12.051Z,988.00
2018-07-07T04:09:12.052Z,996.00
2018-07-07T04:10:12.052Z,1000.00
2018-07-07T04:11:12.051Z,1008.00
2018-07-07T04:12:12.050Z,1028.00
2018-07-07T04:13:12.042Z,1064.00
2018-07-07T04:14:12.041Z,1104.00
2018-07-07T04:15:12.040Z,1144.00
2018-07-07T04:16:12.039Z,1176.00
2018-07-07T04:17:12.043Z,1204.00
2018-07-07T04:18:12.042Z,1276.00
2018-07-07T04:19:12.036Z,1404.00
2018-07-07T04:20:12.107Z,1556.00
2018-07-07T04:21:12.038Z,1700.00
2018-07-07T04:22:12.036Z,1812.00
2018-07-07T04:23:12.034Z,1900.00
2018-07-07T04:24:12.031Z,1972.00
2018-07-07T04:25:12.026Z,2040.00
2018-07-07T04:26:12.025Z,2104.00
2018-07-07T04:27:12.023Z,2156.00
2018-07-07T04:28:12.021Z,2196.00
2018-07-07T04:29:12.024Z,2224.00
2018-07-07T04:30:12.023Z,2252.00
2018-07-07T04:31:12.026Z,2292.00
2018-07-07T04:32:12.021Z,2292.00
2018-07-07T04:33:12.016Z,2312.00
2018-07-07T04:34:12.014Z,2336.00
2018-07-07T04:39:12.045Z,2376.00
2018-07-07T04:40:12.004Z,2556.00
2018-07-07T04:41:12.008Z,2704.00
2018-07-07T04:42:12.006Z,2796.00
2018-07-07T04:43:12.001Z,2720.00
2018-07-07T04:44:11.999Z,2616.00
2018-07-07T04:45:12.003Z,2552.00
2018-07-07T04:46:12.003Z,2508.00
2018-07-07T04:47:11.999Z,2492.00
2018-07-07T04:48:12.000Z,2532.00
2018-07-07T04:49:11.992Z,2596.00
2018-07-07T04:50:11.991Z,2652.00
2018-07-07T04:51:11.995Z,2716.00
2018-07-07T04:52:11.994Z,2740.00
2018-07-07T04:53:11.987Z,2784.00
2018-07-07T04:54:11.986Z,2868.00
2018-07-07T04:55:11.985Z,2920.00
2018-07-07T04:56:11.983Z,2996.00
2018-07-07T04:57:11.988Z,3052.00
2018-07-07T04:58:11.987Z,3144.00
2018-07-07T04:59:11.988Z,3340.00
2018-07-07T05:00:11.983Z,3656.00
2018-07-07T05:01:11.977Z,3912.00
2018-07-07T05:02:11.977Z,4152.00
2018-07-07T05:03:11.975Z,4344.00
2018-07-07T05:04:11.974Z,4528.00
2018-07-07T05:05:11.977Z,4724.00
2018-07-07T05:06:11.977Z,5064.00
2018-07-07T05:07:11.972Z,5192.00
2018-07-07T05:08:11.968Z,5348.00
2018-07-07T05:09:11.974Z,6600.00
2018-07-07T05:10:11.972Z,5868.00
2018-07-07T05:11:11.973Z,5940.00
2018-07-07T05:12:11.972Z,6104.00
2018-07-07T05:13:11.965Z,9920.00
2018-07-07T05:14:11.966Z,6652.00
2018-07-07T05:15:11.963Z,7060.00
2018-07-07T05:16:11.963Z,6908.00
2018-07-07T05:17:12.025Z,6964.00
2018-07-07T05:18:11.968Z,9200.00
2018-07-07T05:19:11.970Z,12132.00
2018-07-07T05:20:11.966Z,7964.00
2018-07-07T05:21:11.961Z,7260.00
2018-07-07T05:22:11.962Z,9020.00
2018-07-07T05:23:11.965Z,17504.00
2018-07-07T05:24:11.966Z,19200.00
2018-07-07T05:25:11.962Z,16576.00
2018-07-07T05:26:11.964Z,14004.00
2018-07-07T05:27:11.964Z,18848.00
2018-07-07T05:28:11.963Z,18912.00
2018-07-07T05:29:11.968Z,19264.00
2018-07-07T05:30:11.972Z,18880.00
2018-07-07T05:31:11.972Z,20896.00
2018-07-07T05:32:12.034Z,20864.00
2018-07-07T05:33:11.970Z,16096.00
2018-07-07T05:34:11.972Z,19648.00
2018-07-07T05:35:11.974Z,14092.00
2018-07-07T05:36:11.976Z,20256.00
2018-07-07T05:37:11.989Z,19168.00
2018-07-07T05:38:11.987Z,22016.00
2018-07-07T05:39:11.986Z,23136.00
2018-07-07T05:40:11.993Z,20864.00
2018-07-07T05:41:11.998Z,12272.00
2018-07-07T05:42:12.002Z,11656.00
2018-07-07T05:43:12.006Z,22208.00
2018-07-07T05:44:12.009Z,21376.00
2018-07-07T05:45:12.009Z,21024.00
2018-07-07T05:46:12.012Z,15808.00
2018-07-07T05:47:12.018Z,23872.00
2018-07-07T05:48:12.021Z,24192.00
2018-07-07T05:49:12.029Z,24736.00
2018-07-07T05:50:12.036Z,23712.00
2018-07-07T05:51:12.041Z,24672.00
2018-07-07T05:52:12.045Z,22912.00
2018-07-07T05:53:12.044Z,24352.00
2018-07-07T05:54:12.051Z,26976.00
2018-07-07T05:55:12.061Z,20128.00
2018-07-07T05:56:12.065Z,19648.00
2018-07-07T05:57:12.066Z,12340.00
2018-07-07T05:58:12.072Z,12000.00
2018-07-07T05:59:12.077Z,11456.00
2018-07-07T06:00:12.082Z,11172.00
2018-07-07T06:01:12.093Z,11528.00
2018-07-07T06:02:12.099Z,12232.00
2018-07-07T06:03:12.106Z,18496.00
2018-07-07T06:04:12.109Z,18816.00
2018-07-07T06:05:12.111Z,13128.00
2018-07-07T06:06:12.117Z,13984.00
2018-07-07T06:07:12.123Z,25952.00
2018-07-07T06:08:12.128Z,17152.00
2018-07-07T06:09:12.139Z,25888.00
2018-07-07T06:10:12.145Z,23744.00
2018-07-07T06:11:12.147Z,25152.00
2018-07-07T06:12:12.150Z,29216.00
2018-07-07T06:13:12.162Z,28992.00
2018-07-07T06:14:12.167Z,26912.00
2018-07-07T06:15:12.173Z,27040.00
2018-07-07T06:16:12.177Z,28832.00
2018-07-07T06:17:12.179Z,29312.00
2018-07-07T06:18:12.197Z,29856.00
2018-07-07T06:19:12.193Z,30144.00
2018-07-07T06:20:12.199Z,30208.00
2018-07-07T06:21:12.208Z,30752.00
2018-07-07T06:22:12.215Z,30400.00
2018-07-07T06:23:12.223Z,30816.00
2018-07-07T06:24:12.232Z,31424.00
2018-07-07T06:25:12.233Z,31872.00
2018-07-07T06:26:12.240Z,31904.00
2018-07-07T06:27:12.253Z,31616.00
2018-07-07T06:28:12.260Z,31840.00
2018-07-07T06:29:12.263Z,32224.00
2018-07-07T06:30:12.272Z,32864.00
2018-07-07T06:31:12.285Z,32992.00
2018-07-07T06:32:12.287Z,32928.00
2018-07-07T06:33:12.301Z,33056.00
2018-07-07T06:34:12.310Z,33504.00
2018-07-07T06:35:12.370Z,33216.00
2018-07-07T06:36:12.326Z,33408.00
2018-07-07T06:37:12.346Z,33312.00
2018-07-07T06:38:12.342Z,33696.00
2018-07-07T06:39:12.352Z,33856.00
2018-07-07T06:40:12.361Z,33984.00
2018-07-07T06:41:12.375Z,34144.00
2018-07-07T06:42:12.386Z,34080.00
2018-07-07T06:43:12.391Z,34240.00
2018-07-07T06:44:12.400Z,34080.00
2018-07-07T06:45:12.416Z,34432.00
2018-07-07T06:46:12.427Z,34624.00
2018-07-07T06:47:12.437Z,34880.00
2018-07-07T06:48:12.451Z,34848.00
2018-07-07T06:49:12.453Z,34752.00
2018-07-07T06:50:12.463Z,34976.00
2018-07-07T06:51:12.474Z,35136.00
2018-07-07T06:52:12.485Z,35616.00
2018-07-07T06:53:12.501Z,35712.00
2018-07-07T06:54:12.511Z,36288.00
2018-07-07T06:55:12.523Z,36608.00
2018-07-07T06:56:12.532Z,37088.00
2018-07-07T06:57:12.541Z,37376.00
2018-07-07T06:58:12.551Z,37760.00
2018-07-07T06:59:12.568Z,37632.00
2018-07-07T07:00:12.579Z,38016.00
2018-07-07T07:01:12.587Z,38464.00
2018-07-07T07:02:12.602Z,39104.00
2018-07-07T07:03:12.611Z,39968.00
2018-07-07T07:04:12.623Z,40992.00
2018-07-07T07:05:12.637Z,43008.00
2018-07-07T07:06:12.651Z,46720.00
2018-07-07T07:07:12.663Z,51456.00
2018-07-07T07:08:12.676Z,56864.00
2018-07-07T07:09:12.691Z,63392.00
2018-07-07T07:10:12.694Z,68608.00
2018-07-07T07:11:12.708Z,68800.00
2018-07-07T07:12:12.720Z,64896.00
2018-07-07T07:13:12.736Z,64832.00
2018-07-07T07:14:12.748Z,65664.00
2018-07-07T07:15:12.756Z,63552.00
2018-07-07T07:16:12.768Z,62112.00
2018-07-07T07:17:12.785Z,62528.00
2018-07-07T07:18:12.798Z,64256.00
2018-07-07T07:19:12.813Z,66208.00
2018-07-07T07:20:12.825Z,70816.00
2018-07-07T07:21:12.834Z,75968.00
2018-07-07T07:22:12.846Z,78528.00
2018-07-07T07:23:12.860Z,81952.00
2018-07-07T07:24:12.872Z,84160.00
2018-07-07T07:25:12.891Z,87584.00
2018-07-07T07:26:13.054Z,93184.00
2018-07-07T07:27:12.918Z,99552.00
2018-07-07T07:28:12.932Z,99520.00
2018-07-07T07:29:12.940Z,100384.00
2018-07-07T07:30:12.957Z,98176.00
2018-07-07T07:31:12.972Z,98560.00
2018-07-07T07:32:12.984Z,101184.00
2018-07-07T07:33:12.994Z,98880.00
2018-07-07T07:34:13.009Z,105088.00
2018-07-07T07:35:13.027Z,112416.00
2018-07-07T07:36:13.036Z,110368.00
2018-07-07T07:37:13.058Z,101088.00
2018-07-07T07:38:13.069Z,98080.00
2018-07-07T07:39:13.083Z,98688.00
2018-07-07T07:40:13.097Z,102304.00
2018-07-07T07:41:13.107Z,96000.00
2018-07-07T07:42:13.121Z,90688.00
2018-07-07T07:43:13.158Z,90016.00
2018-07-07T07:44:13.150Z,87136.00
2018-07-07T07:45:13.169Z,83904.00
2018-07-07T07:46:13.184Z,80992.00
2018-07-07T07:47:13.194Z,80832.00
2018-07-07T07:48:13.207Z,83328.00
2018-07-07T07:49:13.227Z,82560.00
2018-07-07T07:50:13.242Z,76704.00
2018-07-07T07:51:13.260Z,76704.00
2018-07-07T07:52:13.271Z,80736.00
2018-07-07T07:53:13.282Z,86720.00
2018-07-07T07:54:13.298Z,87360.00
2018-07-07T07:55:13.312Z,75552.00
2018-07-07T07:56:13.328Z,69216.00
2018-07-07T07:57:13.350Z,72448.00
2018-07-07T07:58:13.363Z,74144.00
2018-07-07T07:59:13.379Z,72032.00
2018-07-07T08:00:13.394Z,62592.00
2018-07-07T08:01:13.404Z,63232.00
2018-07-07T08:02:13.422Z,64480.00
2018-07-07T08:03:13.442Z,64064.00
2018-07-07T08:04:13.456Z,63680.00
2018-07-07T08:05:13.466Z,66240.00
2018-07-07T08:06:13.483Z,65920.00
2018-07-07T08:07:13.498Z,63552.00
2018-07-07T08:08:13.514Z,60768.00
2018-07-07T08:09:13.535Z,60000.00
2018-07-07T08:10:13.550Z,65248.00
2018-07-07T08:11:13.566Z,66880.00
2018-07-07T08:12:13.580Z,64640.00
2018-07-07T08:13:13.597Z,62880.00
2018-07-07T08:14:13.681Z,60448.00
2018-07-07T08:15:13.627Z,59712.00
2018-07-07T08:16:13.643Z,61728.00
2018-07-07T08:17:13.663Z,61120.00
2018-07-07T08:18:13.682Z,60768.00
2018-07-07T08:19:13.695Z,61760.00
2018-07-07T08:20:13.709Z,61760.00
2018-07-07T08:21:13.733Z,60000.00
2018-07-07T08:22:13.746Z,60064.00
2018-07-07T08:23:13.769Z,59296.00
2018-07-07T08:24:13.782Z,56544.00
2018-07-07T08:25:13.793Z,56832.00
2018-07-07T08:26:13.810Z,59040.00
2018-07-07T08:27:13.826Z,60992.00
2018-07-07T08:28:13.842Z,61504.00
2018-07-07T08:29:13.864Z,60896.00
2018-07-07T08:30:13.880Z,63840.00
2018-07-07T08:31:13.900Z,67232.00
2018-07-07T08:32:13.915Z,66432.00
2018-07-07T08:33:13.928Z,62432.00
2018-07-07T08:34:13.946Z,60256.00
2018-07-07T08:35:13.967Z,62880.00
2018-07-07T08:36:13.984Z,64128.00
2018-07-07T08:37:13.996Z,64672.00
2018-07-07T08:38:14.013Z,67712.00
2018-07-07T08:39:14.031Z,68960.00
2018-07-07T08:40:14.048Z,68736.00
2018-07-07T08:41:14.070Z,64544.00
2018-07-07T08:42:14.138Z,63232.00
2018-07-07T08:43:14.106Z,63360.00
2018-07-07T08:44:14.126Z,67872.00
2018-07-07T08:45:14.139Z,73280.00
2018-07-07T08:46:14.161Z,77440.00
2018-07-07T08:47:14.177Z,74432.00
2018-07-07T08:48:14.194Z,66752.00
2018-07-07T08:49:14.228Z,60960.00
2018-07-07T08:50:14.238Z,56928.00
2018-07-07T08:51:14.254Z,56160.00
2018-07-07T08:52:14.274Z,54912.00
2018-07-07T08:53:14.298Z,54784.00
2018-07-07T08:54:14.317Z,53120.00
2018-07-07T08:55:14.338Z,52640.00
2018-07-07T08:56:14.358Z,52640.00
2018-07-07T08:57:14.372Z,52416.00
2018-07-07T08:58:14.391Z,51552.00
2018-07-07T08:59:14.411Z,49120.00
2018-07-07T09:00:14.430Z,46528.00
2018-07-07T09:01:14.456Z,45312.00
2018-07-07T09:02:14.515Z,45536.00
2018-07-07T09:03:14.496Z,46336.00
2018-07-07T09:04:14.514Z,46400.00
2018-07-07T09:05:14.531Z,45920.00
2018-07-07T09:06:14.551Z,45920.00
2018-07-07T09:07:14.576Z,46688.00
2018-07-07T09:08:14.598Z,46400.00
2018-07-07T09:09:14.611Z,45984.00
2018-07-07T09:10:14.632Z,45952.00
2018-07-07T09:11:14.653Z,46656.00
2018-07-07T09:12:14.672Z,46336.00
2018-07-07T09:13:14.699Z,46560.00
2018-07-07T09:14:14.735Z,46368.00
2018-07-07T09:15:14.741Z,47232.00
2018-07-07T09:16:14.761Z,48320.00
2018-07-07T09:17:14.778Z,47680.00
2018-07-07T09:18:14.799Z,48128.00
2018-07-07T09:19:14.824Z,48128.00
2018-07-07T09:20:14.843Z,48352.00
2018-07-07T09:21:14.899Z,48352.00
2018-07-07T09:22:14.893Z,47264.00
2018-07-07T09:23:14.908Z,46784.00
2018-07-07T09:24:14.928Z,46912.00
2018-07-07T09:25:14.955Z,47264.00
2018-07-07T09:26:14.977Z,47168.00
2018-07-07T09:27:14.997Z,47072.00
2018-07-07T09:28:15.017Z,47072.00
2018-07-07T09:29:15.033Z,47040.00
2018-07-07T09:30:15.055Z,46400.00
2018-07-07T09:31:15.074Z,46400.00
2018-07-07T09:32:15.094Z,46624.00
2018-07-07T09:33:15.118Z,45920.00
2018-07-07T09:34:15.138Z,45760.00
2018-07-07T09:35:15.157Z,45056.00
2018-07-07T09:36:15.177Z,44576.00
2018-07-07T09:37:15.191Z,44800.00
2018-07-07T09:38:15.211Z,44736.00
2018-07-07T09:39:15.235Z,44448.00
2018-07-07T09:40:15.252Z,44480.00
2018-07-07T09:41:15.269Z,44480.00
2018-07-07T09:42:15.285Z,43712.00
2018-07-07T09:43:15.305Z,43264.00
2018-07-07T09:44:15.323Z,43808.00
2018-07-07T09:45:15.347Z,45056.00
2018-07-07T09:46:15.366Z,46528.00
2018-07-07T09:47:15.386Z,64288.00
2018-07-07T09:48:15.407Z,92544.00
2018-07-07T09:49:15.420Z,101088.00
2018-07-07T09:50:15.439Z,91424.00
2018-07-07T09:51:15.460Z,89856.00
2018-07-07T09:52:15.480Z,87712.00
2018-07-07T09:53:15.503Z,86016.00
2018-07-07T09:54:15.525Z,88480.00
2018-07-07T09:55:15.540Z,90496.00
2018-07-07T09:56:15.642Z,88832.00
2018-07-07T09:57:15.631Z,87712.00
2018-07-07T09:58:15.606Z,92416.00
2018-07-07T09:59:15.626Z,92576.00
2018-07-07T10:00:15.645Z,90432.00
2018-07-07T10:01:15.662Z,86784.00
2018-07-07T10:02:15.683Z,90048.00
2018-07-07T10:03:15.706Z,91616.00
2018-07-07T10:04:15.723Z,91008.00
2018-07-07T10:05:15.747Z,87328.00
2018-07-07T10:06:15.768Z,84864.00
2018-07-07T10:07:15.788Z,83520.00
2018-07-07T10:08:15.805Z,84160.00
2018-07-07T10:09:15.820Z,82304.00
2018-07-07T10:10:15.841Z,86464.00
2018-07-07T10:11:15.864Z,88480.00
2018-07-07T10:12:15.884Z,88896.00
2018-07-07T10:13:15.899Z,86624.00
2018-07-07T10:14:15.918Z,87424.00
2018-07-07T10:15:15.938Z,87264.00
2018-07-07T10:16:15.956Z,85120.00
2018-07-07T10:17:15.980Z,83360.00
2018-07-07T10:18:16.000Z,84352.00
2018-07-07T10:19:16.020Z,86976.00
2018-07-07T10:20:16.039Z,86688.00
2018-07-07T10:21:16.053Z,85184.00
2018-07-07T10:22:16.072Z,85280.00
2018-07-07T10:23:16.091Z,86560.00
2018-07-07T10:24:16.109Z,84512.00
2018-07-07T10:25:16.133Z,80928.00
2018-07-07T10:26:16.183Z,82432.00
2018-07-07T10:27:16.168Z,82528.00
2018-07-07T10:28:16.187Z,85312.00
2018-07-07T10:29:16.211Z,82784.00
2018-07-07T10:30:16.233Z,82144.00
2018-07-07T10:31:16.250Z,82112.00
2018-07-07T10:32:16.269Z,81664.00
2018-07-07T10:33:16.285Z,81440.00
2018-07-07T10:34:16.304Z,81248.00
2018-07-07T10:35:16.325Z,78368.00
2018-07-07T10:36:16.344Z,77472.00
2018-07-07T10:37:16.371Z,75456.00
2018-07-07T10:38:16.410Z,75328.00
2018-07-07T10:39:16.411Z,73920.00
2018-07-07T10:40:16.430Z,74432.00
2018-07-07T10:41:16.448Z,73312.00
2018-07-07T10:42:16.469Z,75680.00
2018-07-07T10:43:16.494Z,73216.00
2018-07-07T10:44:16.514Z,75104.00
2018-07-07T10:45:16.530Z,77440.00
2018-07-07T10:46:16.557Z,78464.00
2018-07-07T10:47:16.583Z,78848.00
2018-07-07T10:48:16.592Z,76320.00
2018-07-07T10:49:16.617Z,74304.00
2018-07-07T10:50:16.637Z,76448.00
2018-07-07T10:51:16.658Z,75936.00
2018-07-07T10:52:16.676Z,73760.00
2018-07-07T10:53:16.694Z,73408.00
2018-07-07T10:54:16.712Z,74176.00
2018-07-07T10:55:16.731Z,74112.00
2018-07-07T10:56:16.750Z,70080.00
2018-07-07T10:57:16.775Z,72352.00
2018-07-07T10:58:16.796Z,75296.00
2018-07-07T10:59:16.811Z,74624.00
2018-07-07T11:00:16.832Z,72576.00
2018-07-07T11:01:16.856Z,76736.00
2018-07-07T11:02:16.877Z,84704.00
2018-07-07T11:03:16.899Z,84608.00
2018-07-07T11:04:17.014Z,82400.00
2018-07-07T11:05:16.932Z,85536.00
2018-07-07T11:06:16.953Z,84864.00
2018-07-07T11:07:16.973Z,87456.00
2018-07-07T11:08:16.996Z,88672.00
2018-07-07T11:09:17.016Z,90752.00
2018-07-07T11:10:17.036Z,89632.00
2018-07-07T11:11:17.056Z,91776.00
2018-07-07T11:12:17.077Z,95744.00
2018-07-07T11:13:17.091Z,91232.00
2018-07-07T11:14:17.112Z,96832.00
2018-07-07T11:15:17.138Z,95680.00
2018-07-07T11:16:17.155Z,98912.00
2018-07-07T11:17:17.170Z,102816.00
2018-07-07T11:18:17.191Z,108704.00
2018-07-07T11:19:17.209Z,110400.00
2018-07-07T11:20:17.227Z,109472.00
2018-07-07T11:21:17.250Z,107488.00
2018-07-07T11:22:17.271Z,105472.00
2018-07-07T11:23:17.289Z,106240.00
2018-07-07T11:24:17.307Z,105696.00
2018-07-07T11:25:17.322Z,77056.00
2018-07-07T11:26:17.340Z,24256.00
2018-07-07T11:27:17.359Z,8472.00
2018-07-07T11:28:17.374Z,6984.00
2018-07-07T11:29:17.396Z,6624.00
2018-07-07T11:30:17.414Z,6480.00
2018-07-07T11:31:17.424Z,6380.00
2018-07-07T11:32:17.439Z,6332.00
2018-07-07T11:33:17.459Z,6292.00
2018-07-07T11:34:17.475Z,6308.00
2018-07-07T11:35:17.490Z,6024.00
2018-07-07T11:36:17.564Z,5928.00
2018-07-07T11:37:17.512Z,5932.00
2018-07-07T11:38:17.526Z,5956.00
2018-07-07T11:39:17.540Z,6000.00
2018-07-07T11:40:17.552Z,6000.00
2018-07-07T11:41:17.570Z,5956.00
2018-07-07T11:42:17.621Z,5932.00
2018-07-07T11:43:17.597Z,5856.00
2018-07-07T11:44:17.650Z,5804.00
2018-07-07T11:45:17.613Z,5748.00
2018-07-07T11:46:17.626Z,5716.00
2018-07-07T11:47:17.644Z,5668.00
2018-07-07T11:48:17.652Z,5656.00
2018-07-07T11:49:17.658Z,5732.00
2018-07-07T11:50:17.698Z,5820.00
2018-07-07T11:51:17.679Z,5868.00
2018-07-07T11:52:17.688Z,5560.00
2018-07-07T11:53:17.702Z,5824.00
2018-07-07T11:54:17.711Z,5748.00
2018-07-07T11:55:17.721Z,5640.00
2018-07-07T11:56:17.729Z,5508.00
2018-07-07T11:57:17.757Z,5456.00
2018-07-07T11:58:17.744Z,5476.00
2018-07-07T11:59:17.752Z,5448.00
2018-07-07T12:00:17.760Z,5412.00
2018-07-07T12:01:17.773Z,5520.00
2018-07-07T12:02:17.783Z,5540.00
2018-07-07T12:03:17.786Z,5432.00
2018-07-07T12:04:17.795Z,5444.00
2018-07-07T12:05:17.807Z,5364.00
2018-07-07T12:06:17.814Z,5340.00
2018-07-07T12:07:17.821Z,5164.00
2018-07-07T12:08:17.849Z,5092.00
2018-07-07T12:09:17.832Z,5012.00
2018-07-07T12:10:17.839Z,4932.00
2018-07-07T12:11:17.869Z,4940.00
2018-07-07T12:12:17.854Z,4984.00
2018-07-07T12:13:17.866Z,5008.00
2018-07-07T12:14:17.874Z,5068.00
2018-07-07T12:15:17.881Z,5136.00
2018-07-07T12:16:17.887Z,5032.00
2018-07-07T12:17:17.893Z,4900.00